sensor_id;sensor_type;location;lat;lon;timestamp;pressure;altitude;pressure_sealevel;temperature
40199;BMP280;25906;43.536;26.068;2023-01-26T00:02:32;99491.75;;;2.37
40199;BMP280;25906;43.536;26.068;2023-01-26T00:05:17;99492.22;;;1.97
40199;BMP280;25906;43.536;26.068;2023-01-26T00:08:03;99488.31;;;2.75
40199;BMP280;25906;43.536;26.068;2023-01-26T00:10:48;99486.13;;;2.51
40199;BMP280;25906;43.536;26.068;2023-01-26T00:13:35;99481.53;;;2.63
40199;BMP280;25906;43.536;26.068;2023-01-26T00:16:20;99482.22;;;2.69
40199;BMP280;25906;43.536;26.068;2023-01-26T00:19:06;99481.16;;;2.99
40199;BMP280;25906;43.536;26.068;2023-01-26T00:21:52;99481.16;;;3.10
40199;BMP280;25906;43.536;26.068;2023-01-26T00:24:37;99470.50;;;2.83
40199;BMP280;25906;43.536;26.068;2023-01-26T00:27:23;99472.03;;;2.78
40199;BMP280;25906;43.536;26.068;2023-01-26T00:30:09;99482.84;;;3.07
40199;BMP280;25906;43.536;26.068;2023-01-26T00:32:54;99489.66;;;3.08
40199;BMP280;25906;43.536;26.068;2023-01-26T00:35:41;99479.41;;;3.18
40199;BMP280;25906;43.536;26.068;2023-01-26T00:38:28;99471.09;;;3.27
40199;BMP280;25906;43.536;26.068;2023-01-26T00:41:15;99468.88;;;3.36
40199;BMP280;25906;43.536;26.068;2023-01-26T00:44:19;99476.06;;;3.58
40199;BMP280;25906;43.536;26.068;2023-01-26T00:47:05;99475.09;;;3.55
40199;BMP280;25906;43.536;26.068;2023-01-26T00:49:51;99476.06;;;3.58
40199;BMP280;25906;43.536;26.068;2023-01-26T00:52:36;99475.78;;;3.61
40199;BMP280;25906;43.536;26.068;2023-01-26T00:55:21;99464.00;;;4.10
40199;BMP280;25906;43.536;26.068;2023-01-26T00:58:07;99462.16;;;3.99
40199;BMP280;25906;43.536;26.068;2023-01-26T01:00:53;99454.31;;;3.72
40199;BMP280;25906;43.536;26.068;2023-01-26T01:03:38;99458.97;;;4.01
40199;BMP280;25906;43.536;26.068;2023-01-26T01:06:24;99457.09;;;4.19
40199;BMP280;25906;43.536;26.068;2023-01-26T01:09:09;99443.44;;;3.94
40199;BMP280;25906;43.536;26.068;2023-01-26T01:11:55;99440.88;;;3.77
40199;BMP280;25906;43.536;26.068;2023-01-26T01:14:40;99443.75;;;4.14
40199;BMP280;25906;43.536;26.068;2023-01-26T01:17:26;99445.56;;;3.26
40199;BMP280;25906;43.536;26.068;2023-01-26T01:20:11;99450.50;;;3.11
40199;BMP280;25906;43.536;26.068;2023-01-26T01:22:56;99445.59;;;3.15
40199;BMP280;25906;43.536;26.068;2023-01-26T01:25:42;99441.03;;;3.10
40199;BMP280;25906;43.536;26.068;2023-01-26T01:28:27;99436.94;;;3.03
40199;BMP280;25906;43.536;26.068;2023-01-26T01:31:13;99433.97;;;3.58
40199;BMP280;25906;43.536;26.068;2023-01-26T01:33:59;99426.75;;;3.77
40199;BMP280;25906;43.536;26.068;2023-01-26T01:36:45;99418.06;;;3.31
40199;BMP280;25906;43.536;26.068;2023-01-26T01:39:30;99406.94;;;3.21
40199;BMP280;25906;43.536;26.068;2023-01-26T01:42:15;99404.16;;;2.92
40199;BMP280;25906;43.536;26.068;2023-01-26T01:48:12;99398.53;;;3.01
40199;BMP280;25906;43.536;26.068;2023-01-26T01:51:10;99400.59;;;3.24
40199;BMP280;25906;43.536;26.068;2023-01-26T01:53:58;99393.88;;;3.07
40199;BMP280;25906;43.536;26.068;2023-01-26T01:56:50;99398.41;;;3.23
40199;BMP280;25906;43.536;26.068;2023-01-26T01:59:35;99401.28;;;3.65
40199;BMP280;25906;43.536;26.068;2023-01-26T02:02:21;99394.22;;;3.67
40199;BMP280;25906;43.536;26.068;2023-01-26T02:05:12;99388.25;;;4.15
40199;BMP280;25906;43.536;26.068;2023-01-26T02:08:00;99386.88;;;3.44
40199;BMP280;25906;43.536;26.068;2023-01-26T02:10:48;99381.19;;;3.53
40199;BMP280;25906;43.536;26.068;2023-01-26T02:13:35;99386.09;;;3.49
40199;BMP280;25906;43.536;26.068;2023-01-26T02:16:21;99379.97;;;3.60
40199;BMP280;25906;43.536;26.068;2023-01-26T02:19:16;99379.00;;;3.52
40199;BMP280;25906;43.536;26.068;2023-01-26T02:22:09;99378.06;;;4.08
40199;BMP280;25906;43.536;26.068;2023-01-26T02:25:03;99378.63;;;4.24
40199;BMP280;25906;43.536;26.068;2023-01-26T02:27:50;99391.50;;;4.02
40199;BMP280;25906;43.536;26.068;2023-01-26T02:30:36;99388.91;;;3.91
40199;BMP280;25906;43.536;26.068;2023-01-26T02:33:23;99394.09;;;3.09
40199;BMP280;25906;43.536;26.068;2023-01-26T02:36:39;99380.97;;;3.11
40199;BMP280;25906;43.536;26.068;2023-01-26T02:39:44;99371.03;;;3.06
40199;BMP280;25906;43.536;26.068;2023-01-26T02:42:33;99373.16;;;3.53
40199;BMP280;25906;43.536;26.068;2023-01-26T02:45:26;99368.31;;;3.81
40199;BMP280;25906;43.536;26.068;2023-01-26T02:48:13;99372.28;;;3.45
40199;BMP280;25906;43.536;26.068;2023-01-26T02:51:19;99363.91;;;3.83
40199;BMP280;25906;43.536;26.068;2023-01-26T02:54:04;99365.88;;;3.54
40199;BMP280;25906;43.536;26.068;2023-01-26T02:56:49;99363.53;;;3.39
40199;BMP280;25906;43.536;26.068;2023-01-26T02:59:35;99354.91;;;3.86
40199;BMP280;25906;43.536;26.068;2023-01-26T03:02:20;99357.34;;;3.50
40199;BMP280;25906;43.536;26.068;2023-01-26T03:05:07;99352.69;;;3.56
40199;BMP280;25906;43.536;26.068;2023-01-26T03:07:52;99341.88;;;4.62
40199;BMP280;25906;43.536;26.068;2023-01-26T03:10:38;99343.69;;;3.88
40199;BMP280;25906;43.536;26.068;2023-01-26T03:13:23;99333.75;;;3.83
40199;BMP280;25906;43.536;26.068;2023-01-26T03:16:09;99322.25;;;4.12
40199;BMP280;25906;43.536;26.068;2023-01-26T03:18:55;99330.34;;;4.30
40199;BMP280;25906;43.536;26.068;2023-01-26T03:21:53;99320.41;;;3.48
40199;BMP280;25906;43.536;26.068;2023-01-26T03:24:57;99324.94;;;4.12
40199;BMP280;25906;43.536;26.068;2023-01-26T03:28:01;99321.41;;;4.22
40199;BMP280;25906;43.536;26.068;2023-01-26T03:30:48;99320.81;;;4.71
40199;BMP280;25906;43.536;26.068;2023-01-26T03:33:33;99322.53;;;4.69
40199;BMP280;25906;43.536;26.068;2023-01-26T03:36:19;99313.81;;;4.99
40199;BMP280;25906;43.536;26.068;2023-01-26T03:39:04;99299.78;;;4.75
40199;BMP280;25906;43.536;26.068;2023-01-26T03:41:50;99295.22;;;5.20
40199;BMP280;25906;43.536;26.068;2023-01-26T03:44:53;99299.94;;;5.14
40199;BMP280;25906;43.536;26.068;2023-01-26T03:48:11;99296.47;;;5.31
40199;BMP280;25906;43.536;26.068;2023-01-26T03:51:15;99287.78;;;5.83
40199;BMP280;25906;43.536;26.068;2023-01-26T03:54:19;99288.19;;;5.61
40199;BMP280;25906;43.536;26.068;2023-01-26T03:57:23;99288.06;;;6.18
40199;BMP280;25906;43.536;26.068;2023-01-26T04:00:08;99278.44;;;5.32
40199;BMP280;25906;43.536;26.068;2023-01-26T04:02:54;99270.25;;;4.93
40199;BMP280;25906;43.536;26.068;2023-01-26T04:05:58;99268.53;;;5.27
40199;BMP280;25906;43.536;26.068;2023-01-26T04:09:02;99265.72;;;5.32
40199;BMP280;25906;43.536;26.068;2023-01-26T04:11:48;99253.06;;;5.72
40199;BMP280;25906;43.536;26.068;2023-01-26T04:14:33;99261.00;;;5.51
40199;BMP280;25906;43.536;26.068;2023-01-26T04:17:37;99244.25;;;3.49
40199;BMP280;25906;43.536;26.068;2023-01-26T04:20:41;99256.91;;;2.34
40199;BMP280;25906;43.536;26.068;2023-01-26T04:23:45;99240.94;;;3.38
40199;BMP280;25906;43.536;26.068;2023-01-26T04:26:30;99244.63;;;3.35
40199;BMP280;25906;43.536;26.068;2023-01-26T04:29:19;99245.59;;;3.32
40199;BMP280;25906;43.536;26.068;2023-01-26T04:32:04;99247.03;;;3.38
40199;BMP280;25906;43.536;26.068;2023-01-26T04:34:49;99251.94;;;3.00
40199;BMP280;25906;43.536;26.068;2023-01-26T04:37:35;99243.66;;;3.32
40199;BMP280;25906;43.536;26.068;2023-01-26T04:40:21;99244.34;;;3.38
40199;BMP280;25906;43.536;26.068;2023-01-26T04:43:06;99255.22;;;3.16
40199;BMP280;25906;43.536;26.068;2023-01-26T04:45:59;99252.97;;;3.26
40199;BMP280;25906;43.536;26.068;2023-01-26T04:48:45;99253.34;;;2.71
40199;BMP280;25906;43.536;26.068;2023-01-26T04:51:30;99255.91;;;3.52
40199;BMP280;25906;43.536;26.068;2023-01-26T04:54:19;99248.56;;;3.58
40199;BMP280;25906;43.536;26.068;2023-01-26T04:57:04;99242.25;;;3.55
40199;BMP280;25906;43.536;26.068;2023-01-26T04:59:50;99242.34;;;3.15
40199;BMP280;25906;43.536;26.068;2023-01-26T05:02:35;99225.16;;;3.10
40199;BMP280;25906;43.536;26.068;2023-01-26T05:05:20;99225.19;;;3.82
40199;BMP280;25906;43.536;26.068;2023-01-26T05:08:06;99229.97;;;3.65
40199;BMP280;25906;43.536;26.068;2023-01-26T05:10:51;99232.59;;;3.47
40199;BMP280;25906;43.536;26.068;2023-01-26T05:13:37;99234.44;;;3.81
40199;BMP280;25906;43.536;26.068;2023-01-26T05:16:23;99224.63;;;3.41
40199;BMP280;25906;43.536;26.068;2023-01-26T05:19:09;99223.22;;;3.35
40199;BMP280;25906;43.536;26.068;2023-01-26T05:21:54;99225.69;;;3.57
40199;BMP280;25906;43.536;26.068;2023-01-26T05:24:40;99217.22;;;3.76
40199;BMP280;25906;43.536;26.068;2023-01-26T05:27:25;99214.38;;;3.16
40199;BMP280;25906;43.536;26.068;2023-01-26T05:30:11;99219.44;;;3.72
40199;BMP280;25906;43.536;26.068;2023-01-26T05:33:04;99217.09;;;3.87
40199;BMP280;25906;43.536;26.068;2023-01-26T05:35:51;99214.13;;;3.91
40199;BMP280;25906;43.536;26.068;2023-01-26T05:38:37;99214.69;;;3.84
40199;BMP280;25906;43.536;26.068;2023-01-26T05:41:22;99217.88;;;4.24
40199;BMP280;25906;43.536;26.068;2023-01-26T05:44:08;99213.94;;;3.89
40199;BMP280;25906;43.536;26.068;2023-01-26T05:46:53;99217.06;;;4.29
40199;BMP280;25906;43.536;26.068;2023-01-26T05:49:38;99220.91;;;3.92
40199;BMP280;25906;43.536;26.068;2023-01-26T05:52:27;99214.34;;;3.93
40199;BMP280;25906;43.536;26.068;2023-01-26T05:55:12;99211.75;;;3.40
40199;BMP280;25906;43.536;26.068;2023-01-26T05:57:58;99218.69;;;3.54
40199;BMP280;25906;43.536;26.068;2023-01-26T06:00:43;99218.69;;;3.54
40199;BMP280;25906;43.536;26.068;2023-01-26T06:03:28;99213.03;;;3.57
40199;BMP280;25906;43.536;26.068;2023-01-26T06:06:14;99212.88;;;3.20
40199;BMP280;25906;43.536;26.068;2023-01-26T06:08:59;99199.75;;;3.22
40199;BMP280;25906;43.536;26.068;2023-01-26T06:11:45;99200.03;;;3.66
40199;BMP280;25906;43.536;26.068;2023-01-26T06:14:30;99209.91;;;3.77
40199;BMP280;25906;43.536;26.068;2023-01-26T06:17:17;99205.97;;;4.38
40199;BMP280;25906;43.536;26.068;2023-01-26T06:20:02;99202.00;;;4.26
40199;BMP280;25906;43.536;26.068;2023-01-26T06:22:48;99204.50;;;3.82
40199;BMP280;25906;43.536;26.068;2023-01-26T06:25:33;99201.22;;;3.71
40199;BMP280;25906;43.536;26.068;2023-01-26T06:28:18;99195.31;;;3.30
40199;BMP280;25906;43.536;26.068;2023-01-26T06:31:05;99196.63;;;3.66
40199;BMP280;25906;43.536;26.068;2023-01-26T06:33:51;99191.50;;;3.20
40199;BMP280;25906;43.536;26.068;2023-01-26T06:36:37;99191.28;;;3.66
40199;BMP280;25906;43.536;26.068;2023-01-26T06:39:22;99193.00;;;3.87
40199;BMP280;25906;43.536;26.068;2023-01-26T06:42:07;99179.47;;;4.35
40199;BMP280;25906;43.536;26.068;2023-01-26T06:44:53;99181.28;;;4.09
40199;BMP280;25906;43.536;26.068;2023-01-26T06:47:44;99177.66;;;3.88
40199;BMP280;25906;43.536;26.068;2023-01-26T06:50:32;99162.22;;;3.94
40199;BMP280;25906;43.536;26.068;2023-01-26T06:53:56;99162.03;;;4.10
40199;BMP280;25906;43.536;26.068;2023-01-26T06:56:42;99159.09;;;4.45
40199;BMP280;25906;43.536;26.068;2023-01-26T06:59:27;99153.09;;;4.20
40199;BMP280;25906;43.536;26.068;2023-01-26T07:02:18;99156.28;;;4.19
40199;BMP280;25906;43.536;26.068;2023-01-26T07:05:04;99157.59;;;4.31
40199;BMP280;25906;43.536;26.068;2023-01-26T07:07:50;99147.03;;;4.20
40199;BMP280;25906;43.536;26.068;2023-01-26T07:10:36;99141.06;;;4.45
40199;BMP280;25906;43.536;26.068;2023-01-26T07:13:22;99129.31;;;3.99
40199;BMP280;25906;43.536;26.068;2023-01-26T07:16:10;99135.91;;;4.16
40199;BMP280;25906;43.536;26.068;2023-01-26T07:18:55;99115.47;;;3.76
40199;BMP280;25906;43.536;26.068;2023-01-26T07:21:41;99114.88;;;3.65
40199;BMP280;25906;43.536;26.068;2023-01-26T07:24:27;99110.63;;;4.12
40199;BMP280;25906;43.536;26.068;2023-01-26T07:27:12;99110.75;;;4.37
40199;BMP280;25906;43.536;26.068;2023-01-26T07:29:57;99109.72;;;4.40
40199;BMP280;25906;43.536;26.068;2023-01-26T07:32:43;99109.34;;;4.49
40199;BMP280;25906;43.536;26.068;2023-01-26T07:35:28;99102.34;;;4.59
40199;BMP280;25906;43.536;26.068;2023-01-26T07:38:14;99092.38;;;4.73
40199;BMP280;25906;43.536;26.068;2023-01-26T07:41:04;99107.38;;;5.32
40199;BMP280;25906;43.536;26.068;2023-01-26T07:43:49;99106.09;;;4.82
40199;BMP280;25906;43.536;26.068;2023-01-26T07:46:36;99110.28;;;4.65
40199;BMP280;25906;43.536;26.068;2023-01-26T07:49:21;99118.75;;;4.81
40199;BMP280;25906;43.536;26.068;2023-01-26T07:52:07;99120.66;;;4.99
40199;BMP280;25906;43.536;26.068;2023-01-26T07:54:53;99123.38;;;5.12
40199;BMP280;25906;43.536;26.068;2023-01-26T07:57:39;99122.75;;;4.49
40199;BMP280;25906;43.536;26.068;2023-01-26T08:00:25;99127.81;;;4.34
40199;BMP280;25906;43.536;26.068;2023-01-26T08:03:10;99121.78;;;4.16
40199;BMP280;25906;43.536;26.068;2023-01-26T08:05:55;99112.97;;;4.33
40199;BMP280;25906;43.536;26.068;2023-01-26T08:08:41;99120.88;;;4.57
40199;BMP280;25906;43.536;26.068;2023-01-26T08:11:26;99120.00;;;4.36
40199;BMP280;25906;43.536;26.068;2023-01-26T08:14:12;99119.66;;;4.58
40199;BMP280;25906;43.536;26.068;2023-01-26T08:16:57;99118.16;;;4.63
40199;BMP280;25906;43.536;26.068;2023-01-26T08:19:44;99113.91;;;4.54
40199;BMP280;25906;43.536;26.068;2023-01-26T08:22:29;99107.41;;;4.75
40199;BMP280;25906;43.536;26.068;2023-01-26T08:25:15;99108.69;;;4.43
40199;BMP280;25906;43.536;26.068;2023-01-26T08:28:00;99094.72;;;4.32
40199;BMP280;25906;43.536;26.068;2023-01-26T08:30:47;99097.47;;;5.02
40199;BMP280;25906;43.536;26.068;2023-01-26T08:33:33;99096.53;;;4.86
40199;BMP280;25906;43.536;26.068;2023-01-26T08:36:18;99090.81;;;4.64
40199;BMP280;25906;43.536;26.068;2023-01-26T08:39:04;99086.91;;;4.65
40199;BMP280;25906;43.536;26.068;2023-01-26T08:41:49;99089.59;;;4.34
40199;BMP280;25906;43.536;26.068;2023-01-26T08:44:35;99089.91;;;4.87
40199;BMP280;25906;43.536;26.068;2023-01-26T08:47:20;99091.75;;;5.57
40199;BMP280;25906;43.536;26.068;2023-01-26T08:50:06;99097.94;;;5.98
40199;BMP280;25906;43.536;26.068;2023-01-26T08:52:54;99092.16;;;6.35
40199;BMP280;25906;43.536;26.068;2023-01-26T08:55:40;99077.50;;;6.15
40199;BMP280;25906;43.536;26.068;2023-01-26T08:58:25;99084.47;;;5.78
40199;BMP280;25906;43.536;26.068;2023-01-26T09:01:13;99080.19;;;5.62
40199;BMP280;25906;43.536;26.068;2023-01-26T09:03:58;99081.50;;;5.68
40199;BMP280;25906;43.536;26.068;2023-01-26T09:06:44;99082.53;;;5.98
40199;BMP280;25906;43.536;26.068;2023-01-26T09:09:29;99075.72;;;5.97
40199;BMP280;25906;43.536;26.068;2023-01-26T09:11:55;99071.72;;;5.45
40199;BMP280;25906;43.536;26.068;2023-01-26T09:14:39;99071.16;;;5.26
40199;BMP280;25906;43.536;26.068;2023-01-26T09:17:25;99067.66;;;4.92
40199;BMP280;25906;43.536;26.068;2023-01-26T09:20:11;99066.91;;;5.18
40199;BMP280;25906;43.536;26.068;2023-01-26T09:22:57;99065.88;;;4.95
40199;BMP280;25906;43.536;26.068;2023-01-26T09:25:43;99063.97;;;5.54
40199;BMP280;25906;43.536;26.068;2023-01-26T18:52:10;98333.91;;;5.86
40199;BMP280;25906;43.536;26.068;2023-01-26T18:55:03;98326.72;;;5.96
40199;BMP280;25906;43.536;26.068;2023-01-26T18:57:48;98325.09;;;6.00
40199;BMP280;25906;43.536;26.068;2023-01-26T19:00:34;98324.03;;;5.96
40199;BMP280;25906;43.536;26.068;2023-01-26T19:03:20;98319.19;;;6.02
40199;BMP280;25906;43.536;26.068;2023-01-26T19:06:07;98318.50;;;6.01
40199;BMP280;25906;43.536;26.068;2023-01-26T19:08:56;98307.88;;;6.11
40199;BMP280;25906;43.536;26.068;2023-01-26T19:11:45;98294.13;;;5.99
40199;BMP280;25906;43.536;26.068;2023-01-26T19:14:31;98297.13;;;6.11
40199;BMP280;25906;43.536;26.068;2023-01-26T19:17:16;98296.84;;;5.92
40199;BMP280;25906;43.536;26.068;2023-01-26T19:20:02;98287.19;;;5.74
40199;BMP280;25906;43.536;26.068;2023-01-26T19:22:48;98284.47;;;5.89
40199;BMP280;25906;43.536;26.068;2023-01-26T19:25:38;98275.16;;;5.83
40199;BMP280;25906;43.536;26.068;2023-01-26T19:28:23;98277.84;;;5.90
40199;BMP280;25906;43.536;26.068;2023-01-26T19:31:09;98277.47;;;6.01
40199;BMP280;25906;43.536;26.068;2023-01-26T19:33:59;98263.31;;;6.00
40199;BMP280;25906;43.536;26.068;2023-01-26T19:36:45;98249.84;;;6.08
40199;BMP280;25906;43.536;26.068;2023-01-26T19:39:31;98243.19;;;6.16
40199;BMP280;25906;43.536;26.068;2023-01-26T19:42:16;98247.78;;;6.31
40199;BMP280;25906;43.536;26.068;2023-01-26T19:45:01;98242.28;;;6.14
40199;BMP280;25906;43.536;26.068;2023-01-26T19:47:47;98238.75;;;6.11
40199;BMP280;25906;43.536;26.068;2023-01-26T19:50:32;98224.91;;;6.46
40199;BMP280;25906;43.536;26.068;2023-01-26T19:53:18;98225.06;;;6.24
40199;BMP280;25906;43.536;26.068;2023-01-26T19:56:08;98200.19;;;6.48
40199;BMP280;25906;43.536;26.068;2023-01-26T19:58:56;98194.72;;;6.39
40199;BMP280;25906;43.536;26.068;2023-01-26T20:01:41;98192.78;;;6.32
40199;BMP280;25906;43.536;26.068;2023-01-26T20:04:27;98179.56;;;5.87
40199;BMP280;25906;43.536;26.068;2023-01-26T20:07:12;98172.94;;;5.88
40199;BMP280;25906;43.536;26.068;2023-01-26T20:09:58;98171.38;;;5.78
40199;BMP280;25906;43.536;26.068;2023-01-26T20:12:43;98170.84;;;5.72
40199;BMP280;25906;43.536;26.068;2023-01-26T20:15:29;98165.81;;;5.76
40199;BMP280;25906;43.536;26.068;2023-01-26T20:18:14;98176.50;;;5.83
40199;BMP280;25906;43.536;26.068;2023-01-26T20:21:00;98172.75;;;5.86
40199;BMP280;25906;43.536;26.068;2023-01-26T20:23:45;98178.16;;;5.71
40199;BMP280;25906;43.536;26.068;2023-01-26T20:26:31;98170.13;;;5.79
40199;BMP280;25906;43.536;26.068;2023-01-26T20:29:18;98175.13;;;5.75
40199;BMP280;25906;43.536;26.068;2023-01-26T20:32:03;98185.16;;;5.82
40199;BMP280;25906;43.536;26.068;2023-01-26T20:34:49;98172.59;;;5.84
40199;BMP280;25906;43.536;26.068;2023-01-26T20:37:34;98173.88;;;5.76
40199;BMP280;25906;43.536;26.068;2023-01-26T20:40:20;98175.78;;;5.90
40199;BMP280;25906;43.536;26.068;2023-01-26T20:43:05;98172.25;;;5.80
40199;BMP280;25906;43.536;26.068;2023-01-26T20:45:51;98166.56;;;5.76
40199;BMP280;25906;43.536;26.068;2023-01-26T20:48:37;98163.09;;;5.83
40199;BMP280;25906;43.536;26.068;2023-01-26T20:51:25;98164.91;;;5.81
40199;BMP280;25906;43.536;26.068;2023-01-26T20:54:14;98157.91;;;5.85
40199;BMP280;25906;43.536;26.068;2023-01-26T20:57:01;98146.47;;;5.77
40199;BMP280;25906;43.536;26.068;2023-01-26T20:59:46;98161.78;;;5.99
40199;BMP280;25906;43.536;26.068;2023-01-26T21:02:31;98144.53;;;5.78
40199;BMP280;25906;43.536;26.068;2023-01-26T21:05:17;98145.56;;;5.89
40199;BMP280;25906;43.536;26.068;2023-01-26T21:08:03;98134.25;;;5.91
40199;BMP280;25906;43.536;26.068;2023-01-26T21:10:49;98116.09;;;5.67
40199;BMP280;25906;43.536;26.068;2023-01-26T21:13:35;98115.47;;;5.84
40199;BMP280;25906;43.536;26.068;2023-01-26T21:16:20;98112.66;;;5.74
40199;BMP280;25906;43.536;26.068;2023-01-26T21:19:07;98100.06;;;5.84
40199;BMP280;25906;43.536;26.068;2023-01-26T21:21:52;98104.75;;;5.84
40199;BMP280;25906;43.536;26.068;2023-01-26T21:24:37;98098.75;;;6.00
40199;BMP280;25906;43.536;26.068;2023-01-26T21:27:23;98090.72;;;5.92
40199;BMP280;25906;43.536;26.068;2023-01-26T21:30:09;98096.78;;;6.00
40199;BMP280;25906;43.536;26.068;2023-01-26T21:32:54;98107.72;;;5.95
40199;BMP280;25906;43.536;26.068;2023-01-26T21:35:40;98110.75;;;5.99
40199;BMP280;25906;43.536;26.068;2023-01-26T21:38:26;98108.56;;;6.05
40199;BMP280;25906;43.536;26.068;2023-01-26T21:41:25;98100.50;;;6.05
40199;BMP280;25906;43.536;26.068;2023-01-26T21:44:31;98104.78;;;6.08
40199;BMP280;25906;43.536;26.068;2023-01-26T21:47:17;98088.00;;;6.00
40199;BMP280;25906;43.536;26.068;2023-01-26T21:50:02;98094.38;;;6.12
40199;BMP280;25906;43.536;26.068;2023-01-26T21:52:48;98095.53;;;6.01
40199;BMP280;25906;43.536;26.068;2023-01-26T21:55:45;98091.44;;;5.93
40199;BMP280;25906;43.536;26.068;2023-01-26T21:58:30;98090.16;;;6.01
40199;BMP280;25906;43.536;26.068;2023-01-26T22:01:36;98086.06;;;5.93
40199;BMP280;25906;43.536;26.068;2023-01-26T22:04:24;98070.47;;;5.99
40199;BMP280;25906;43.536;26.068;2023-01-26T22:07:09;98082.41;;;6.05
40199;BMP280;25906;43.536;26.068;2023-01-26T22:09:55;98070.63;;;6.01
40199;BMP280;25906;43.536;26.068;2023-01-26T22:12:40;98074.03;;;6.01
40199;BMP280;25906;43.536;26.068;2023-01-26T22:15:26;98076.53;;;5.99
40199;BMP280;25906;43.536;26.068;2023-01-26T22:18:11;98073.84;;;5.99
40199;BMP280;25906;43.536;26.068;2023-01-26T22:20:57;98067.22;;;6.00
40199;BMP280;25906;43.536;26.068;2023-01-26T22:23:42;98059.19;;;6.00
40199;BMP280;25906;43.536;26.068;2023-01-26T22:26:28;98054.00;;;5.95
40199;BMP280;25906;43.536;26.068;2023-01-26T22:29:13;98041.63;;;5.99
40199;BMP280;25906;43.536;26.068;2023-01-26T22:31:59;98020.75;;;5.90
40199;BMP280;25906;43.536;26.068;2023-01-26T22:34:44;98019.91;;;5.81
40199;BMP280;25906;43.536;26.068;2023-01-26T22:37:29;97996.16;;;5.94
40199;BMP280;25906;43.536;26.068;2023-01-26T22:40:15;98000.09;;;6.00
40199;BMP280;25906;43.536;26.068;2023-01-26T22:43:00;97995.00;;;6.04
40199;BMP280;25906;43.536;26.068;2023-01-26T22:45:46;97986.09;;;6.02
40199;BMP280;25906;43.536;26.068;2023-01-26T22:48:32;97986.28;;;5.96
40199;BMP280;25906;43.536;26.068;2023-01-26T22:51:22;97981.72;;;5.89
40199;BMP280;25906;43.536;26.068;2023-01-26T22:54:08;97979.53;;;5.95
40199;BMP280;25906;43.536;26.068;2023-01-26T22:56:54;97990.78;;;5.94
40199;BMP280;25906;43.536;26.068;2023-01-26T22:59:40;97992.72;;;6.01
40199;BMP280;25906;43.536;26.068;2023-01-26T23:02:25;97992.94;;;5.95
40199;BMP280;25906;43.536;26.068;2023-01-26T23:05:11;97985.91;;;6.00
40199;BMP280;25906;43.536;26.068;2023-01-26T23:07:56;97981.41;;;6.02
40199;BMP280;25906;43.536;26.068;2023-01-26T23:10:42;97981.19;;;5.91
40199;BMP280;25906;43.536;26.068;2023-01-26T23:13:27;97967.69;;;5.98
40199;BMP280;25906;43.536;26.068;2023-01-26T23:16:13;97961.03;;;5.99
40199;BMP280;25906;43.536;26.068;2023-01-26T23:18:58;97951.94;;;5.95
40199;BMP280;25906;43.536;26.068;2023-01-26T23:21:44;97944.75;;;5.97
40199;BMP280;25906;43.536;26.068;2023-01-26T23:24:29;97941.84;;;6.03
40199;BMP280;25906;43.536;26.068;2023-01-26T23:27:14;97947.91;;;6.03
40199;BMP280;25906;43.536;26.068;2023-01-26T23:30:00;97953.00;;;5.99
40199;BMP280;25906;43.536;26.068;2023-01-26T23:32:45;97956.25;;;6.15
40199;BMP280;25906;43.536;26.068;2023-01-26T23:35:31;97952.91;;;6.07
40199;BMP280;25906;43.536;26.068;2023-01-26T23:38:18;97942.16;;;6.07
40199;BMP280;25906;43.536;26.068;2023-01-26T23:41:04;97930.25;;;6.00
40199;BMP280;25906;43.536;26.068;2023-01-26T23:43:49;97928.53;;;6.12
40199;BMP280;25906;43.536;26.068;2023-01-26T23:46:34;97934.66;;;6.05
40199;BMP280;25906;43.536;26.068;2023-01-26T23:49:20;97935.44;;;5.98
40199;BMP280;25906;43.536;26.068;2023-01-26T23:52:05;97932.38;;;6.19
40199;BMP280;25906;43.536;26.068;2023-01-26T23:54:51;97927.25;;;6.13
40199;BMP280;25906;43.536;26.068;2023-01-26T23:57:36;97929.78;;;6.11
